KGCM

Details ICAO KGCM
Name CLAREMORE RGNL
Region United States
Timezone America/Chicago (UTC-5.0)
Plans Departing 9
Arriving 5
Stats Elevation 733 ft / 223 m (AMSL)
Location 36.292716° -95.479615°
Runways 1
Magnetic Variation 2.344° E
Sunrise 2018-05-25 11:10:15 UTC / 2018-05-25 06:10:15 Local
Sunset 2018-05-26 01:30:23 UTC / 2018-05-25 20:30:23 Local
Advertisement - Login to hide

Runways

ID Width Length Bearing (true) Bearing (mag) Surface Threshold Offset Overrun Length
17 75 ft / 23 m 5,212 ft / 1,589 m 180.12° 177.78° Asphalt 0 ft / 0 m 0 ft / 0 m
35 75 ft / 23 m 5,212 ft / 1,589 m 0.12° 357.78° Asphalt 250 ft / 76 m 0 ft / 0 m

Map

Weather


0- 5 10 15 20 25 30 35+ Temperature / ° C

Clouds and Precipitation
Forecast for 2018-05-26 00:00 UTC. Updated 5 hours ago

Ground ~20,000 ft ~40,000 ft Winds

METAR

KGCM 260355Z AUTO 00000KT 10SM CLR 20/18 A2987 RMK AO2

TAF

Not found

Frequencies

Recorded 119.92 MHz AWOS 3
Approach 119.10 MHz TULSA APP/DEP
Unicom 122.70 MHz CTAF/UNICOM
Warning: Do not use this data for real-world aviation or navigation. No guarantee of current accuracy is given.